Note: Wind direction arrow are unfortunately not working and shows just north


Skjærhalden gjestehavn  Skjærhalden gjestehavn


Lynradar Scandinavia more information blitzortung!


Varsler for Snø/Is more information rain snow radar


Besøk Våre Andre vær websider:

Template documentation
and downloads

And another site



Snø / is Fra: 22-11-2017 00:00 Til: 23:59 advarsel for: Snø / is Nivå: Gul info button
Vind Fra: 22-11-2017 00:00 Til: 23:59 advarsel for: Vind Nivå: Gul info button

Værrapport fra de nærmeste flyplassene

   
ENRY - Rygge
Oppdatert: Nov 22 2017 4:20 am
For det meste Overskyet  
For det meste Overskyet  
   Vind: NNØ 3.6 m/s
Vind: NNØ 3.6 m/s
Temperatur: -6°C
Wind Chill: -11°C
Duggpunkt: -8°C
Luftfuktighet: 86%
Lufttrykk: 1007 hPa
Skyer: For det meste Overskyet
Sikt: More than 10 km
Detaljer skyer: For det meste Overskyet 600 ft
ENRY 220320Z 03007KT 010V070 9999 BKN006 M06/M08 Q1007
ENTO - Sandefjord
Oppdatert: Nov 22 2017 4:20 am
Lett Snø  
Lett Snø  
   Vind: NNØ 6.7 m/s
Vind: NNØ 6.7 m/s
Sikt: 4 km
ENTO 220320Z AUTO 03013KT 4400 -SN ///024/// M06/M06 Q1006
ENSN - Skien
Oppdatert: Nov 9 2015 9:50 am
Oppdatert, se klokkeslett
Klart  
Klart  
   Vind: SSV 5.1 m/s<br />Gust to 5.1 m/s
Vind: SSV 5.1 m/s
Gust to 5.1 m/s
Temperatur: 7°C
Wind Chill: 4°C
Duggpunkt: 3°C
Luftfuktighet: 76%
Lufttrykk: 1000 hPa
Sikt: More than 10 km
Detaljer skyer: Klart
ENSN 090850Z 20010G22KT 150V240 CAVOK 07/03 Q1000
ENGM - Oslo
Oppdatert: Nov 22 2017 4:20 am
Klart  
Klart  
   Vind: varierende 1 m/s
Vind: varierende 1 m/s
Temperatur: -9°C
Duggpunkt: -11°C
Luftfuktighet: 86%
Lufttrykk: 1008 hPa
Sikt: More than 10 km
Detaljer skyer: Klart
ENGM 220320Z VRB02KT CAVOK M09/M11 Q1008
ESOK - Karlstad
Oppdatert: Nov 22 2017 4:20 am
Overskyet  
Overskyet  
   Vind: ØNØ 3.6 m/s
Vind: ØNØ 3.6 m/s
Temperatur: -6°C
Wind Chill: -11°C
Duggpunkt: -6°C
Luftfuktighet: 100%
Lufttrykk: 1009 hPa
Skyer: Overskyet
Sikt: More than 10 km
Detaljer skyer: Overskyet 500 ft
ESOK 220320Z AUTO 07007KT 9999 OVC005/// M06/M06 Q1009
ESST - Torsby
Oppdatert: Nov 22 2017 4:20 am
Overskyet  
Overskyet  
   Vind: NV 2.1 m/s
Vind: NV 2.1 m/s
Temperatur: -10°C
Wind Chill: -14°C
Duggpunkt: -12°C
Luftfuktighet: 85%
Lufttrykk: 1010 hPa
Skyer: Overskyet
Sikt: More than 10 km
Detaljer skyer: Overskyet 1000 ft
ESST 220320Z AUTO 31004KT 9999 OVC010/// M10/M12 Q1010

Script utviklet av  Saratoga-weather.org Tilpasset for tamplaten av  Weerstation Leuven

Du finner stasjonens værinfo også på:

European Weather Network